Winlock, WA

9:56 PM PDT on September 14, 2014 (GMT -0700)
Moonlit | Change Station
CLOSE
Current Station
Personal Weather Station
Location: Winlock, WA
Elevation: 450 ft
Nearby Weather Stations

Elev 450 ft 46.52 °N, 122.93 °W | Updated 1 minute ago

Clear
Clear
58.2 °F
Feels Like 58.2 °F
N
0.0
Wind Variable Wind from ENE
Gusts 0.0 mph

Today
High -- | Low -- °F
--% Chance of Precip.
Yesterday
High -- | Low -- °F
Precip. -- in
6:48 AM 7:25 PM
Waning Gibbous, 59% visible
Pressure 29.83 in
Visibility 10.0 miles
Clouds Mostly Cloudy 5000 ft
Dew Point 45 °F
Humidity 63%
Rainfall 0.00 in
Snow Depth Not available.
UV 0 out of 12
Pollen 1.90 out of 12
PM2.5 Good
Flu Activity Not available.
METAR KCLS 150455Z AUTO 00000KT 10SM BKN050 15/10 A2983 RMK AO2

More Conditions Fewer Conditions

Pressure 29.83 in
Visibility 10.0 miles
Clouds Mostly Cloudy 5000 ft
Dew Point 45 °F
Humidity 63%
Rainfall 0.00 in
Snow Depth Not available.
UV 0 out of 12
Pollen 1.90 out of 12
PM2.5 Good
Flu Activity Not available.
METAR KCLS 150455Z AUTO 00000KT 10SM BKN050 15/10 A2983 RMK AO2

More Conditions Fewer Conditions

10-Day Weather Forecast

Almanac

Astronomy

Sep. 14, 2014 Rise Set
Actual Time 6:48 AM PDT 7:25 PM PDT
Civil Twilight 6:18 AM PDT 7:55 PM PDT
Nautical Twilight 5:41 AM PDT 8:31 PM PDT
Astronomical Twilight 5:04 AM PDT 9:08 PM PDT
Moon 11:01 PM PDT (9/14) 1:20 PM PDT (9/14)
Length of Visible Light 13h 37m
Length of Day
12h 36m
Tomorrow will be 3m 15s shorter.
Waning Gibbous, 59% of the Moon is Illuminated
Sep 15
Waning Gibbous
Sep 15
Last Quarter
Sep 24
New
Oct 1
First Quarter
Oct 8
Full

Yesterday's Extremes

State Highs State Lows

Community

WunderPhotos

Upload Photos

1,753,401 photos uploaded!

Nearby

Air Quality

  Air Quality AQ Index Pollutant
Yesterday Good
PM2.5
Current Good
PM2.5

Snow Depth

Station Depth Elevation
Swift Creek 0 in 3770 ft
Surprise Lakes 1 in 4250 ft
Potato Hill 0 in 4500 ft
Pigtail Peak 0 in 5900 ft
Green Lake 0 in 6000 ft

Earthquake Activity

City Distance Mag. Time & Date
No recent earthquake activity has been reported nearby.
Minimum magnitude displayed is 2.5.

Coastal Water Temperatures

Place Temperature
Astoria, OR 63.0 °F
Westport, WA 55.0 °F

Nearby Weather Stations